Time;durP1;ratioP1;P1;durP2;ratioP2;P2;SDS_P1;SDS_P2;PMS_P1;PMS_P2;Temp;Humidity;BMP_temperature;BMP_pressure;BME280_temperature;BME280_humidity;BME280_pressure;Samples;Min_cycle;Max_cycle;Signal;HPM_P1;HPM_P2
2021/04/20 00:01:03;;;;;;;23.70;16.00;;;5.10;99.90;;;;;;4975037;28;20180;-78
2021/04/20 00:03:29;;;;;;;21.17;14.43;;;5.10;99.90;;;;;;4974733;28;20677;-77
2021/04/20 00:05:54;;;;;;;17.43;12.27;;;5.10;99.90;;;;;;4974558;28;20423;-77
2021/04/20 00:08:20;;;;;;;19.03;13.37;;;5.10;99.90;;;;;;4974596;28;20705;-77
2021/04/20 00:10:46;;;;;;;18.57;13.27;;;5.00;99.90;;;;;;4974732;28;20184;-77
2021/04/20 00:13:12;;;;;;;19.90;12.07;;;5.10;99.90;;;;;;4974486;28;20207;-77
2021/04/20 00:15:38;;;;;;;17.67;12.03;;;5.10;99.90;;;;;;4973041;28;20661;-77
2021/04/20 00:18:06;;;;;;;23.00;16.50;;;5.10;99.90;;;;;;4973244;28;20949;-77
2021/04/20 00:20:34;;;;;;;18.43;12.17;;;5.00;99.90;;;;;;4976252;28;20774;-77
2021/04/20 00:22:59;;;;;;;14.27;10.77;;;5.10;99.90;;;;;;4976679;28;20416;-77
2021/04/20 00:25:25;;;;;;;17.60;11.97;;;5.10;99.90;;;;;;4975234;28;20426;-77
2021/04/20 00:27:51;;;;;;;14.63;11.23;;;5.10;99.90;;;;;;4973583;28;20204;-77
2021/04/20 00:30:17;;;;;;;16.90;11.63;;;5.10;99.90;;;;;;4974822;28;20179;-77
2021/04/20 00:32:44;;;;;;;18.27;11.53;;;5.00;99.90;;;;;;4974475;28;20262;-77
2021/04/20 00:35:11;;;;;;;16.33;11.50;;;5.00;99.90;;;;;;4974347;28;20774;-77
2021/04/20 00:37:37;;;;;;;18.10;11.70;;;5.10;99.90;;;;;;4973583;28;20458;-77
2021/04/20 00:40:05;;;;;;;17.33;11.10;;;5.00;99.90;;;;;;4973190;28;20415;-77
2021/04/20 00:42:30;;;;;;;17.27;10.63;;;5.00;99.90;;;;;;4973092;28;20431;-77
2021/04/20 00:44:56;;;;;;;17.60;11.60;;;5.00;99.90;;;;;;4974170;28;20415;-77
2021/04/20 00:47:22;;;;;;;13.13;9.83;;;5.00;99.90;;;;;;4974220;28;20215;-77
2021/04/20 00:49:47;;;;;;;15.50;10.50;;;5.00;99.90;;;;;;4974444;28;20541;-77
2021/04/20 00:52:13;;;;;;;18.10;11.30;;;5.00;99.90;;;;;;4973022;28;20577;-77
2021/04/20 00:54:39;;;;;;;15.37;11.03;;;5.00;99.90;;;;;;4974082;28;20183;-77
2021/04/20 00:57:07;;;;;;;16.13;11.07;;;4.90;99.90;;;;;;4974152;28;20192;-77
2021/04/20 00:59:32;;;;;;;16.07;10.57;;;4.90;99.90;;;;;;4974320;28;20192;-77
2021/04/20 01:01:58;;;;;;;15.00;10.47;;;4.90;99.90;;;;;;4977106;28;20546;-77
2021/04/20 01:04:24;;;;;;;17.00;10.93;;;4.90;99.90;;;;;;4978052;28;20180;-77
2021/04/20 01:06:50;;;;;;;17.60;11.77;;;4.90;99.90;;;;;;4976699;28;20184;-77
2021/04/20 01:09:19;;;;;;;15.63;10.83;;;4.90;99.90;;;;;;4978023;28;20204;-77
2021/04/20 01:11:47;;;;;;;15.90;11.13;;;4.90;99.90;;;;;;4976815;28;21129;-77
2021/04/20 01:14:13;;;;;;;18.23;12.13;;;4.90;99.90;;;;;;4977589;28;20941;-77
2021/04/20 01:16:38;;;;;;;18.23;12.33;;;4.90;99.90;;;;;;4976444;28;20483;-77
2021/04/20 01:19:07;;;;;;;16.80;11.40;;;4.90;99.90;;;;;;4976347;28;20439;-77
2021/04/20 01:21:37;;;;;;;16.40;12.70;;;4.90;99.90;;;;;;4977591;28;20216;-77
2021/04/20 01:24:09;;;;;;;19.27;12.37;;;4.90;99.90;;;;;;4976276;28;20971;-77
2021/04/20 01:26:44;;;;;;;17.23;11.77;;;4.80;99.90;;;;;;4977470;28;20510;-77
2021/04/20 01:29:11;;;;;;;17.10;13.27;;;4.90;99.90;;;;;;4977484;28;20484;-77
2021/04/20 01:31:39;;;;;;;16.90;12.07;;;4.80;99.90;;;;;;4976118;28;20424;-77
2021/04/20 01:34:05;;;;;;;16.67;11.90;;;4.80;99.90;;;;;;4977188;28;20494;-77
2021/04/20 01:36:31;;;;;;;18.03;12.67;;;4.80;99.90;;;;;;4977334;28;20470;-77
2021/04/20 01:38:58;;;;;;;18.63;11.93;;;4.90;99.90;;;;;;4977301;28;20435;-77
2021/04/20 01:41:28;;;;;;;16.97;13.67;;;4.80;99.90;;;;;;4976080;28;20241;-77
2021/04/20 01:43:56;;;;;;;16.57;11.27;;;4.90;99.90;;;;;;4977272;28;20168;-77
2021/04/20 01:46:23;;;;;;;16.53;11.33;;;4.80;99.90;;;;;;4976974;28;20188;-77
2021/04/20 01:48:49;;;;;;;16.00;12.03;;;4.80;99.90;;;;;;4977064;28;20200;-77
2021/04/20 01:51:16;;;;;;;15.53;11.30;;;4.90;99.90;;;;;;4975783;28;20668;-77
2021/04/20 01:53:42;;;;;;;15.97;11.53;;;4.80;99.90;;;;;;4977132;28;20197;-77
2021/04/20 01:56:10;;;;;;;17.63;12.33;;;4.80;99.90;;;;;;4976792;28;20208;-77
2021/04/20 01:58:38;;;;;;;18.50;12.33;;;4.80;99.90;;;;;;4977170;28;20259;-77
2021/04/20 02:01:11;;;;;;;16.93;12.07;;;4.80;99.90;;;;;;4977213;28;20176;-77
2021/04/20 02:03:37;;;;;;;15.20;11.23;;;4.70;99.90;;;;;;4977012;28;20169;-77
2021/04/20 02:06:05;;;;;;;16.40;11.87;;;4.70;99.90;;;;;;4975473;28;20276;-77
2021/04/20 02:08:32;;;;;;;17.87;11.63;;;4.80;99.90;;;;;;4976960;28;20247;-77
2021/04/20 02:11:02;;;;;;;17.37;12.27;;;4.70;99.90;;;;;;4976524;28;20176;-77
2021/04/20 02:13:28;;;;;;;18.13;11.60;;;4.70;99.90;;;;;;4976675;28;20208;-77
2021/04/20 02:15:53;;;;;;;16.67;11.40;;;4.70;99.90;;;;;;4976535;28;20169;-77
2021/04/20 02:18:23;;;;;;;18.93;11.93;;;4.70;99.90;;;;;;4976516;28;20208;-77
2021/04/20 02:20:51;;;;;;;18.90;12.17;;;4.70;99.90;;;;;;4976521;28;20173;-77
2021/04/20 02:23:19;;;;;;;18.90;11.70;;;4.70;99.90;;;;;;4976441;28;20173;-77
2021/04/20 02:25:47;;;;;;;19.43;13.57;;;4.70;99.90;;;;;;4976231;28;20187;-77
2021/04/20 02:28:13;;;;;;;17.93;12.20;;;4.70;99.90;;;;;;4974973;28;20204;-77
2021/04/20 02:30:39;;;;;;;20.00;12.57;;;4.70;99.90;;;;;;4976344;28;20654;-77
2021/04/20 02:33:05;;;;;;;19.83;12.70;;;4.70;99.90;;;;;;4976463;28;20292;-77
2021/04/20 02:35:31;;;;;;;17.10;11.70;;;4.70;99.90;;;;;;4976059;28;20199;-77
2021/04/20 02:37:58;;;;;;;18.80;12.30;;;4.70;99.90;;;;;;4976500;28;20439;-77
2021/04/20 02:40:27;;;;;;;17.10;12.07;;;4.80;99.90;;;;;;4976191;28;20267;-77
2021/04/20 02:42:53;;;;;;;19.03;12.93;;;4.80;99.90;;;;;;4976484;28;20574;-77
2021/04/20 02:45:25;;;;;;;17.90;12.10;;;4.60;99.90;;;;;;4975961;28;20451;-77
2021/04/20 02:47:52;;;;;;;13.23;10.23;;;4.60;99.90;;;;;;4974684;28;20216;-77
2021/04/20 02:50:20;;;;;;;18.20;12.50;;;4.60;99.90;;;;;;4976061;28;20188;-77
2021/04/20 02:52:50;;;;;;;17.13;11.93;;;4.50;99.90;;;;;;4976123;28;20204;-77
2021/04/20 02:55:18;;;;;;;18.67;11.50;;;4.50;99.90;;;;;;4975793;28;20195;-77
2021/04/20 02:57:47;;;;;;;17.07;12.47;;;4.50;99.90;;;;;;4975992;28;20292;-77
2021/04/20 03:00:16;;;;;;;21.57;12.30;;;4.50;99.90;;;;;;4975808;28;20424;-77
2021/04/20 03:02:44;;;;;;;16.80;12.47;;;4.50;99.90;;;;;;4975703;28;20660;-77
2021/04/20 03:05:13;;;;;;;18.03;12.20;;;4.60;99.90;;;;;;4974319;28;20211;-77
2021/04/20 03:07:39;;;;;;;15.17;11.60;;;4.40;99.90;;;;;;4975648;28;20187;-77
2021/04/20 03:10:06;;;;;;;15.77;11.43;;;4.60;99.90;;;;;;4974363;28;20195;-77
2021/04/20 03:12:34;;;;;;;17.17;10.63;;;4.50;99.90;;;;;;4975419;28;20572;-77
2021/04/20 03:15:02;;;;;;;16.80;11.77;;;4.50;99.90;;;;;;4975453;28;20184;-77
2021/04/20 03:17:27;;;;;;;17.97;10.93;;;4.50;99.90;;;;;;4975478;28;20215;-77
2021/04/20 03:19:56;;;;;;;15.87;11.77;;;4.50;99.90;;;;;;4974306;28;20177;-77
2021/04/20 03:22:24;;;;;;;16.50;11.23;;;4.50;99.90;;;;;;4975386;28;20180;-77
2021/04/20 03:25:05;;;;;;;17.77;12.73;;;4.50;99.90;;;;;;4974865;28;20207;-77
2021/04/20 03:27:35;;;;;;;18.37;12.43;;;4.50;99.90;;;;;;4975214;28;20200;-77
2021/04/20 03:30:02;;;;;;;16.57;11.27;;;4.50;99.90;;;;;;4975563;28;20181;-77
2021/04/20 03:32:28;;;;;;;16.93;11.53;;;4.50;99.90;;;;;;4973921;28;20215;-77
2021/04/20 03:35:15;;;;;;;16.23;11.47;;;4.40;99.90;;;;;;4975052;28;20176;-77
2021/04/20 03:38:02;;;;;;;17.93;12.40;;;4.40;99.90;;;;;;4975155;28;20200;-77
2021/04/20 03:40:29;;;;;;;18.73;12.87;;;4.40;99.90;;;;;;4988107;28;20451;-77
2021/04/20 03:42:59;;;;;;;15.10;11.53;;;4.40;99.90;;;;;;4987311;28;20191;-77
2021/04/20 03:45:33;;;;;;;18.33;12.70;;;4.40;99.90;;;;;;4979793;28;20631;-77
2021/04/20 03:48:10;;;;;;;19.23;13.13;;;4.50;99.90;;;;;;4978788;28;20560;-77
2021/04/20 03:50:39;;;;;;;18.60;13.27;;;4.50;99.90;;;;;;4973934;28;20180;-77
2021/04/20 03:53:08;;;;;;;20.10;12.53;;;4.40;99.90;;;;;;4974757;28;20204;-77
2021/04/20 03:55:35;;;;;;;17.03;11.80;;;4.40;99.90;;;;;;4974706;28;20639;-77
2021/04/20 03:58:04;;;;;;;15.93;11.93;;;4.40;99.90;;;;;;4974707;28;20220;-77
2021/04/20 04:00:30;;;;;;;19.30;12.13;;;4.30;99.90;;;;;;4973513;28;20267;-77
2021/04/20 04:02:56;;;;;;;16.73;11.73;;;4.30;99.90;;;;;;4974963;28;20180;-77
2021/04/20 04:05:31;;;;;;;15.83;11.40;;;4.30;99.90;;;;;;4973212;28;20479;-77
2021/04/20 04:08:00;;;;;;;15.30;11.07;;;4.30;99.90;;;;;;4973683;28;20565;-77
2021/04/20 04:10:29;;;;;;;15.97;11.67;;;4.30;99.90;;;;;;4974683;28;20177;-77
2021/04/20 04:13:01;;;;;;;16.17;11.53;;;4.40;99.90;;;;;;4973370;28;20251;-77
2021/04/20 04:15:27;;;;;;;17.80;12.00;;;4.30;99.90;;;;;;4974533;28;20196;-77
2021/04/20 04:17:56;;;;;;;17.60;11.90;;;4.40;99.90;;;;;;4974495;28;20250;-77
2021/04/20 04:20:22;;;;;;;17.90;11.60;;;4.30;99.90;;;;;;4973374;28;20204;-77
2021/04/20 04:23:14;;;;;;;18.63;11.97;;;4.30;99.90;;;;;;4973533;28;20597;-77
2021/04/20 04:25:47;;;;;;;15.57;11.20;;;4.30;99.90;;;;;;4974275;28;20255;-77
2021/04/20 04:28:14;;;;;;;14.80;10.87;;;4.30;99.90;;;;;;4973289;28;20208;-77
2021/04/20 04:30:40;;;;;;;16.33;11.50;;;4.30;99.90;;;;;;4974529;28;20412;-77
2021/04/20 04:33:07;;;;;;;17.53;11.50;;;;;;;;;;4973396;28;20459;-77
2021/04/20 04:35:35;;;;;;;18.40;12.93;;;4.30;99.90;;;;;;4977124;28;20211;-77
2021/04/20 04:38:01;;;;;;;17.83;12.20;;;4.30;99.90;;;;;;4978574;28;20234;-77
2021/04/20 04:40:28;;;;;;;21.10;12.60;;;4.20;99.90;;;;;;4978275;28;20204;-77
2021/04/20 04:42:54;;;;;;;18.23;11.93;;;4.30;99.90;;;;;;4977123;28;20428;-78
2021/04/20 04:45:20;;;;;;;21.23;14.00;;;4.30;99.90;;;;;;4976833;28;20184;-78
2021/04/20 04:47:46;;;;;;;21.03;14.90;;;4.30;99.90;;;;;;4977103;28;20204;-77
2021/04/20 04:50:12;;;;;;;22.57;14.67;;;4.30;99.90;;;;;;4976992;28;20550;-77
2021/04/20 04:52:40;;;;;;;22.50;13.37;;;4.40;99.90;;;;;;4978062;28;20220;-77
2021/04/20 04:55:08;;;;;;;24.13;13.73;;;4.40;99.90;;;;;;4993229;28;20322;-78
2021/04/20 04:57:35;;;;;;;30.83;16.40;;;4.40;99.90;;;;;;4977038;28;20219;-78
2021/04/20 05:00:05;;;;;;;28.20;15.93;;;4.40;99.90;;;;;;4978067;28;20180;-78
2021/04/20 05:02:32;;;;;;;23.70;12.80;;;4.40;99.90;;;;;;4976725;28;20188;-77
2021/04/20 05:05:04;;;;;;;18.93;12.50;;;4.30;99.90;;;;;;4976541;28;20181;-77
2021/04/20 05:07:30;;;;;;;16.80;11.23;;;4.50;99.90;;;;;;4976510;28;20415;-78
2021/04/20 05:10:00;;;;;;;13.80;10.10;;;4.50;99.90;;;;;;4978027;28;20177;-77
2021/04/20 05:12:27;;;;;;;17.57;12.33;;;4.50;99.90;;;;;;4977913;28;20246;-77
2021/04/20 05:14:53;;;;;;;15.07;11.40;;;4.60;99.90;;;;;;4977627;28;20207;-77
2021/04/20 05:17:22;;;;;;;15.43;11.43;;;4.60;99.90;;;;;;4977872;28;20581;-77
2021/04/20 05:19:51;;;;;;;16.33;11.63;;;4.60;99.90;;;;;;4977816;28;20282;-78
2021/04/20 05:22:17;;;;;;;16.20;11.20;;;4.60;99.90;;;;;;4976589;28;20639;-78
2021/04/20 05:24:43;;;;;;;16.30;12.07;;;4.60;99.90;;;;;;4976333;28;20287;-77
2021/04/20 05:27:10;;;;;;;18.53;12.47;;;4.60;99.90;;;;;;4976293;28;20182;-77
2021/04/20 05:29:39;;;;;;;17.13;11.53;;;4.70;99.90;;;;;;4977443;28;20251;-77
2021/04/20 05:32:05;;;;;;;18.27;11.87;;;4.70;99.90;;;;;;4993072;28;20204;-77
2021/04/20 05:34:31;;;;;;;21.70;11.93;;;4.70;99.90;;;;;;4991574;28;20276;-77
2021/04/20 05:36:56;;;;;;;18.30;12.03;;;4.70;99.90;;;;;;4975954;28;20264;-77
2021/04/20 05:39:22;;;;;;;15.80;10.93;;;4.70;99.90;;;;;;4976914;28;20279;-77
2021/04/20 05:41:48;;;;;;;17.00;13.10;;;4.70;99.90;;;;;;4975989;28;20714;-77
2021/04/20 05:44:15;;;;;;;19.57;12.70;;;4.70;99.90;;;;;;4977072;28;20188;-77
2021/04/20 05:46:43;;;;;;;17.67;12.80;;;4.80;99.90;;;;;;4976622;28;20181;-77
2021/04/20 05:49:10;;;;;;;16.33;11.53;;;5.00;99.90;;;;;;4977372;28;20201;-77
2021/04/20 05:51:37;;;;;;;16.73;12.03;;;5.00;99.90;;;;;;4977440;28;20217;-77
2021/04/20 05:54:03;;;;;;;17.83;12.30;;;5.10;99.90;;;;;;4976869;28;20224;-77
2021/04/20 05:56:29;;;;;;;19.93;12.33;;;5.20;99.90;;;;;;4976957;28;20182;-77
2021/04/20 05:58:57;;;;;;;17.17;12.10;;;5.30;99.90;;;;;;4977111;28;20204;-77
2021/04/20 06:01:25;;;;;;;16.33;12.07;;;5.30;99.90;;;;;;4978027;28;20179;-78
2021/04/20 06:03:52;;;;;;;18.90;11.73;;;5.30;99.90;;;;;;4975774;28;20194;-77
2021/04/20 06:06:20;;;;;;;16.07;10.43;;;5.30;99.90;;;;;;4975748;28;20217;-77
2021/04/20 06:08:48;;;;;;;17.80;11.80;;;5.30;99.90;;;;;;4975483;28;20216;-77
2021/04/20 06:11:15;;;;;;;16.43;12.13;;;5.20;99.90;;;;;;4977229;28;20185;-77
2021/04/20 06:13:41;;;;;;;16.43;12.03;;;5.20;99.90;;;;;;4977398;28;20622;-77
2021/04/20 06:16:07;;;;;;;16.80;12.37;;;5.20;99.90;;;;;;4975125;28;20293;-77
2021/04/20 06:18:36;;;;;;;16.20;12.50;;;5.30;99.90;;;;;;4976511;28;20272;-77
2021/04/20 06:21:02;;;;;;;17.60;11.97;;;5.30;99.90;;;;;;4976489;28;20722;-77
2021/04/20 06:23:28;;;;;;;18.87;12.87;;;5.40;99.90;;;;;;4976586;28;20209;-77
2021/04/20 06:26:00;;;;;;;17.87;12.10;;;5.40;99.90;;;;;;4975122;28;20594;-77
2021/04/20 06:28:26;;;;;;;21.00;13.70;;;5.40;99.90;;;;;;4975503;28;20239;-77
2021/04/20 06:30:56;;;;;;;18.13;11.90;;;5.40;99.90;;;;;;4988403;28;20201;-78
2021/04/20 06:33:24;;;;;;;20.77;12.50;;;5.50;99.90;;;;;;5010876;28;20282;-77
2021/04/20 06:35:50;;;;;;;18.20;12.90;;;5.40;99.90;;;;;;4995948;28;20172;-77
2021/04/20 06:38:17;;;;;;;19.83;12.77;;;5.50;99.90;;;;;;4996435;28;20188;-77
2021/04/20 06:40:48;;;;;;;29.00;17.20;;;5.50;99.90;;;;;;4995737;28;20172;-77
2021/04/20 06:43:15;;;;;;;34.43;19.97;;;5.50;99.90;;;;;;4995910;28;20177;-78
2021/04/20 06:45:49;;;;;;;37.67;24.27;;;5.60;99.90;;;;;;4996367;28;20176;-77
2021/04/20 06:48:36;;;;;;;24.50;14.47;;;5.60;99.90;;;;;;4996117;28;20196;-77
2021/04/20 06:51:06;;;;;;;21.43;13.60;;;5.70;99.90;;;;;;4994605;28;20180;-77
2021/04/20 06:53:54;;;;;;;21.63;14.43;;;5.80;99.90;;;;;;4981888;28;20554;-78
2021/04/20 06:56:40;;;;;;;54.73;25.07;;;5.90;99.90;;;;;;4965270;28;20224;-78
2021/04/20 06:59:29;;;;;;;56.30;26.13;;;5.90;99.90;;;;;;4980849;28;20278;-78
2021/04/20 07:02:32;;;;;;;59.17;32.57;;;6.00;99.90;;;;;;4996156;28;20197;-77
2021/04/20 07:04:59;;;;;;;29.20;18.97;;;6.00;99.90;;;;;;4995797;28;20580;-78
2021/04/20 07:07:53;;;;;;;17.23;13.47;;;6.10;99.90;;;;;;4994263;28;20183;-78
2021/04/20 07:10:39;;;;;;;18.47;13.47;;;6.20;99.90;;;;;;4983312;28;20174;-78
2021/04/20 07:13:11;;;;;;;22.13;15.27;;;6.40;99.90;;;;;;4976228;28;20659;-77
2021/04/20 07:15:39;;;;;;;21.37;14.70;;;6.50;99.90;;;;;;4997465;28;20188;-78
2021/04/20 07:18:40;;;;;;;18.63;13.90;;;6.60;99.90;;;;;;5001336;28;20192;-79
2021/04/20 07:21:31;;;;;;;17.47;12.90;;;6.70;99.90;;;;;;5076082;28;20985;-77
2021/04/20 07:24:07;;;;;;;18.87;13.90;;;6.70;99.90;;;;;;5070563;28;20187;-77
2021/04/20 07:26:56;;;;;;;20.50;13.83;;;6.80;99.90;;;;;;5073404;28;20197;-77
2021/04/20 07:29:31;;;;;;;20.37;13.30;;;6.60;99.90;;;;;;5057955;28;20261;-78
2021/04/20 07:32:21;;;;;;;18.33;12.30;;;6.60;99.90;;;;;;5073207;28;20597;-77
2021/04/20 07:35:15;;;;;;;18.37;13.83;;;6.60;99.90;;;;;;5076351;28;20262;-78
2021/04/20 07:37:42;;;;;;;21.27;14.33;;;6.60;99.90;;;;;;5074368;28;20181;-78
2021/04/20 07:40:09;;;;;;;22.90;15.27;;;6.60;99.90;;;;;;5072446;28;20225;-77
2021/04/20 07:42:56;;;;;;;19.63;14.60;;;6.70;99.90;;;;;;5070556;28;20250;-77
2021/04/20 07:45:31;;;;;;;19.73;14.73;;;6.70;99.90;;;;;;5068957;28;20206;-77
2021/04/20 07:48:09;;;;;;;19.77;14.13;;;6.70;99.90;;;;;;5071498;28;20191;-77
2021/04/20 07:50:43;;;;;;;20.10;14.20;;;6.80;99.90;;;;;;5074583;28;20181;-79
2021/04/20 07:53:32;;;;;;;19.07;14.50;;;6.80;99.90;;;;;;5076134;28;20207;-78
2021/04/20 07:56:13;;;;;;;21.10;14.27;;;6.80;99.90;;;;;;5070078;28;20169;-76
2021/04/20 07:58:44;;;;;;;23.17;15.97;;;6.90;99.90;;;;;;5070585;28;20197;-76
2021/04/20 08:01:42;;;;;;;24.43;15.27;;;7.00;99.90;;;;;;5069278;28;20181;-76
2021/04/20 08:04:27;;;;;;;25.13;15.70;;;7.10;99.90;;;;;;5064167;28;20427;-75
2021/04/20 08:07:06;;;;;;;23.03;15.13;;;7.20;99.90;;;;;;5070185;28;20168;-76
2021/04/20 08:09:36;;;;;;;21.83;15.77;;;7.30;99.90;;;;;;5069932;28;20737;-76
2021/04/20 08:12:07;;;;;;;22.17;15.13;;;7.40;99.90;;;;;;5070141;28;20197;-76
2021/04/20 08:14:51;;;;;;;22.60;15.83;;;7.60;99.90;;;;;;5069454;28;20215;-76
2021/04/20 08:17:28;;;;;;;20.90;14.80;;;7.70;99.90;;;;;;5069852;28;20165;-76
2021/04/20 08:20:02;;;;;;;25.13;15.67;;;7.90;99.90;;;;;;5069561;28;20287;-76
2021/04/20 08:22:28;;;;;;;21.33;14.53;;;8.10;99.90;;;;;;5069725;28;20556;-77
2021/04/20 08:25:24;;;;;;;18.87;13.70;;;8.20;99.90;;;;;;5069414;28;20621;-76
2021/04/20 08:28:07;;;;;;;20.13;13.67;;;8.40;99.90;;;;;;5068666;28;20189;-76
2021/04/20 08:30:40;;;;;;;22.50;14.33;;;8.60;99.90;;;;;;5067563;28;20165;-76
2021/04/20 08:33:11;;;;;;;23.50;14.63;;;8.60;99.90;;;;;;5054972;28;20185;-76
2021/04/20 08:35:38;;;;;;;20.10;13.17;;;8.60;99.90;;;;;;5055959;28;20174;-76
2021/04/20 08:38:42;;;;;;;22.70;14.70;;;8.60;99.90;;;;;;5055972;28;20291;-76
2021/04/20 08:41:14;;;;;;;19.17;14.20;;;8.60;99.90;;;;;;5054163;28;20221;-76
2021/04/20 08:44:18;;;;;;;18.40;13.83;;;8.60;99.90;;;;;;5056313;28;20158;-76
2021/04/20 08:46:54;;;;;;;22.80;13.80;;;8.50;99.90;;;;;;5055909;28;20169;-76
2021/04/20 08:49:35;;;;;;;20.43;13.60;;;8.50;99.90;;;;;;5055855;28;20186;-76
2021/04/20 08:52:14;;;;;;;17.33;13.37;;;8.40;99.90;;;;;;5054582;28;20235;-76
2021/04/20 08:55:02;;;;;;;18.73;14.30;;;8.40;99.90;;;;;;5055603;28;20619;-76
2021/04/20 08:57:45;;;;;;;19.87;14.13;;;8.30;99.90;;;;;;5054336;28;20599;-76
2021/04/20 09:00:21;;;;;;;21.57;15.30;;;8.30;99.90;;;;;;5054980;28;20207;-76
2021/04/20 09:03:08;;;;;;;21.13;14.53;;;8.30;99.90;;;;;;5055591;28;20188;-77
2021/04/20 09:05:49;;;;;;;20.43;14.17;;;8.20;99.90;;;;;;5054135;28;20215;-76
2021/04/20 09:08:36;;;;;;;19.47;13.83;;;8.20;99.90;;;;;;5055489;28;20667;-76
2021/04/20 09:11:15;;;;;;;21.10;13.07;;;8.20;99.90;;;;;;5055393;28;20223;-76
2021/04/20 09:13:54;;;;;;;21.63;14.33;;;8.20;99.90;;;;;;5055627;28;20154;-76
2021/04/20 09:16:25;;;;;;;22.53;14.20;;;8.20;99.90;;;;;;5055342;28;20187;-76
2021/04/20 09:18:52;;;;;;;20.00;13.13;;;8.30;99.90;;;;;;5055350;28;20201;-76
2021/04/20 09:21:41;;;;;;;17.53;13.23;;;8.40;99.90;;;;;;5055387;28;20186;-76
2021/04/20 09:24:14;;;;;;;17.13;12.23;;;8.50;99.90;;;;;;5055327;28;20520;-77
2021/04/20 09:26:55;;;;;;;17.83;12.50;;;8.60;99.90;;;;;;5054555;28;20183;-76
2021/04/20 09:29:28;;;;;;;16.30;12.33;;;8.90;99.90;;;;;;5054682;28;20197;-77
2021/04/20 09:32:01;;;;;;;16.40;11.27;;;9.50;99.90;;;;;;5056122;28;20154;-77
2021/04/20 09:34:34;;;;;;;18.90;12.17;;;9.80;99.90;;;;;;5055250;28;20160;-77
2021/04/20 09:37:02;;;;;;;17.97;12.00;;;10.10;99.90;;;;;;5055283;28;20161;-77
2021/04/20 09:39:30;;;;;;;15.33;11.03;;;10.30;99.90;;;;;;5054904;28;20207;-78
2021/04/20 09:42:01;;;;;;;15.70;11.13;;;10.30;99.90;;;;;;5055187;28;20177;-77
2021/04/20 09:44:41;;;;;;;18.00;11.63;;;10.50;99.90;;;;;;5054330;28;20161;-77
2021/04/20 09:47:25;;;;;;;17.70;11.63;;;10.80;99.90;;;;;;5054989;28;20607;-77
2021/04/20 09:50:02;;;;;;;17.37;12.40;;;11.10;99.90;;;;;;5055049;28;20168;-77
2021/04/20 09:53:00;;;;;;;14.90;11.50;;;11.00;99.90;;;;;;5053445;28;20170;-77
2021/04/20 09:55:34;;;;;;;15.33;11.37;;;11.00;99.90;;;;;;5046113;28;20270;-77
2021/04/20 09:58:02;;;;;;;16.57;11.73;;;10.70;99.90;;;;;;5054576;28;20185;-77
2021/04/20 10:00:28;;;;;;;14.63;11.70;;;10.50;99.90;;;;;;5054493;28;20201;-77
2021/04/20 10:03:23;;;;;;;16.47;12.10;;;10.40;99.90;;;;;;5054585;28;20657;-77
2021/04/20 10:05:57;;;;;;;14.17;11.13;;;10.30;99.90;;;;;;5055037;28;20162;-78
2021/04/20 10:09:00;;;;;;;14.77;10.67;;;10.20;99.90;;;;;;5054697;28;20681;-78
2021/04/20 10:11:49;;;;;;;15.90;11.00;;;10.10;99.90;;;;;;5057523;28;20202;-78
2021/04/20 10:14:24;;;;;;;14.63;10.77;;;10.00;99.90;;;;;;5060089;28;20223;-78
2021/04/20 10:17:02;;;;;;;14.53;10.53;;;10.00;99.90;;;;;;5056145;28;20267;-78
2021/04/20 10:19:37;;;;;;;14.53;10.93;;;10.20;99.90;;;;;;5054972;28;20213;-78
2021/04/20 10:22:18;;;;;;;16.40;11.53;;;10.60;99.90;;;;;;5055643;28;20192;-78
2021/04/20 10:24:56;;;;;;;18.00;11.30;;;11.00;99.90;;;;;;5059207;28;20516;-78
2021/04/20 10:27:26;;;;;;;17.43;12.10;;;11.40;99.90;;;;;;5059239;28;20181;-78
2021/04/20 10:30:11;;;;;;;17.00;11.10;;;11.60;99.90;;;;;;5060311;28;20236;-78
2021/04/20 10:32:41;;;;;;;17.83;11.63;;;11.60;99.90;;;;;;5062158;28;20162;-78
2021/04/20 10:35:18;;;;;;;22.00;11.23;;;11.60;99.90;;;;;;5060365;28;20161;-79
2021/04/20 10:37:49;;;;;;;17.73;12.10;;;11.60;99.90;;;;;;5060369;28;20205;-78
2021/04/20 10:40:18;;;;;;;15.83;11.90;;;11.60;99.90;;;;;;5062169;28;20282;-78
2021/04/20 10:42:49;;;;;;;18.37;11.77;;;11.80;99.90;;;;;;5053334;27;20214;-79
2021/04/20 10:45:21;;;;;;;15.60;11.57;;;11.90;99.90;;;;;;5043645;28;20162;-78
2021/04/20 10:47:50;;;;;;;15.40;11.20;;;11.70;99.90;;;;;;5041786;28;20268;-78
2021/04/20 10:50:22;;;;;;;14.33;11.13;;;11.50;99.90;;;;;;5041010;28;20188;-78
2021/04/20 10:52:53;;;;;;;17.30;10.50;;;11.30;99.90;;;;;;5043548;28;20253;-79
2021/04/20 10:55:24;;;;;;;16.80;11.47;;;11.30;99.90;;;;;;5043594;28;20690;-79
2021/04/20 10:57:51;;;;;;;17.00;11.43;;;11.30;99.90;;;;;;5041650;28;20205;-78
2021/04/20 11:00:19;;;;;;;16.87;11.37;;;11.30;99.90;;;;;;5040014;28;20190;-79
2021/04/20 11:02:50;;;;;;;15.57;11.13;;;11.40;99.90;;;;;;5043003;28;20179;-78
2021/04/20 11:05:21;;;;;;;15.20;12.27;;;11.40;99.90;;;;;;5040032;28;20268;-78
2021/04/20 11:07:48;;;;;;;18.30;12.77;;;11.40;99.90;;;;;;5038591;28;20196;-78
2021/04/20 11:10:16;;;;;;;17.43;11.70;;;11.50;99.90;;;;;;5040357;28;20269;-79
2021/04/20 11:12:44;;;;;;;14.43;11.37;;;11.40;99.90;;;;;;5039435;28;20513;-78
2021/04/20 11:15:30;;;;;;;14.87;11.57;;;11.40;99.90;;;;;;5036621;28;20648;-78
2021/04/20 11:17:56;;;;;;;17.40;12.23;;;11.40;99.90;;;;;;5040782;28;20684;-78
2021/04/20 11:20:36;;;;;;;19.23;12.50;;;11.70;99.90;;;;;;5041158;28;20232;-79
2021/04/20 11:23:11;;;;;;;16.43;11.73;;;12.00;99.90;;;;;;5039569;28;20246;-80
2021/04/20 11:26:02;;;;;;;15.17;11.43;;;12.10;99.90;;;;;;5040277;28;20463;-79
2021/04/20 11:28:46;;;;;;;14.43;11.07;;;12.40;99.90;;;;;;5045053;28;20228;-78
2021/04/20 11:31:18;;;;;;;14.50;11.67;;;13.30;99.90;;;;;;5042912;28;20178;-78
2021/04/20 11:33:47;;;;;;;14.13;11.43;;;13.90;99.90;;;;;;5047606;28;20171;-79
2021/04/20 11:36:24;;;;;;;13.53;10.83;;;13.40;99.90;;;;;;5044548;28;20172;-79
2021/04/20 11:38:52;;;;;;;12.67;10.63;;;13.90;99.90;;;;;;5042879;28;20194;-79
2021/04/20 11:41:26;;;;;;;15.13;11.07;;;14.50;99.90;;;;;;5041179;28;20194;-81
2021/04/20 11:43:56;;;;;;;13.73;11.37;;;14.50;99.90;;;;;;5042448;28;20175;-79
2021/04/20 11:46:23;;;;;;;14.07;11.43;;;14.20;99.90;;;;;;5040501;28;20195;-79
2021/04/20 11:48:55;;;;;;;14.93;12.40;;;14.00;99.90;;;;;;5039649;28;20197;-79
2021/04/20 11:51:21;;;;;;;13.13;10.67;;;13.70;99.90;;;;;;5042915;28;20183;-79
2021/04/20 11:53:49;;;;;;;12.93;10.67;;;13.50;99.90;;;;;;5044147;28;20171;-79
2021/04/20 11:56:16;;;;;;;15.20;11.57;;;13.30;99.90;;;;;;5039270;28;20545;-78
2021/04/20 11:58:47;;;;;;;14.97;12.03;;;13.00;99.90;;;;;;5039669;28;20691;-80
2021/04/20 12:01:21;;;;;;;16.00;11.73;;;12.80;99.90;;;;;;5042739;28;20198;-79
2021/04/20 12:03:54;;;;;;;14.93;10.93;;;12.80;99.90;;;;;;5042287;28;20531;-78
2021/04/20 12:06:24;;;;;;;15.13;11.37;;;12.70;99.90;;;;;;5046732;28;20168;-78
2021/04/20 12:08:54;;;;;;;15.70;12.17;;;12.50;99.90;;;;;;5043984;28;20198;-79
2021/04/20 12:11:26;;;;;;;14.87;11.73;;;12.40;99.90;;;;;;5042267;28;20171;-78
2021/04/20 12:13:53;;;;;;;13.97;10.30;;;12.50;99.90;;;;;;5043649;28;20163;-78
2021/04/20 12:16:20;;;;;;;13.80;10.63;;;12.70;99.90;;;;;;5043683;28;20588;-78
2021/04/20 12:18:48;;;;;;;15.30;10.30;;;12.70;99.90;;;;;;5041375;28;20209;-80
2021/04/20 12:21:24;;;;;;;16.67;11.30;;;12.50;99.90;;;;;;5043210;28;20225;-78
2021/04/20 12:23:59;;;;;;;13.70;11.23;;;12.60;99.90;;;;;;5043012;28;20177;-78
2021/04/20 12:26:27;;;;;;;15.10;11.07;;;12.50;99.90;;;;;;5038519;28;20249;-79
2021/04/20 12:28:56;;;;;;;14.93;10.50;;;12.70;99.90;;;;;;5038598;28;20187;-79
2021/04/20 12:31:32;;;;;;;13.80;11.20;;;13.00;99.90;;;;;;5043746;28;20233;-80
2021/04/20 12:33:59;;;;;;;16.23;11.60;;;13.00;99.90;;;;;;5041173;28;20180;-77
2021/04/20 12:36:29;;;;;;;12.40;10.07;;;12.90;99.90;;;;;;5039745;28;20582;-79
2021/04/20 12:38:59;;;;;;;12.70;10.20;;;13.10;99.90;;;;;;5041415;28;20206;-78
2021/04/20 12:41:28;;;;;;;12.77;10.23;;;13.50;99.90;;;;;;5042793;28;20170;-79
2021/04/20 12:44:01;;;;;;;12.37;9.67;;;13.60;99.90;;;;;;5041310;28;20662;-78
2021/04/20 12:46:29;;;;;;;14.33;11.43;;;13.70;99.90;;;;;;5043119;28;20170;-78
2021/04/20 12:48:58;;;;;;;14.40;10.53;;;14.00;99.90;;;;;;5041738;28;20232;-78
2021/04/20 12:51:30;;;;;;;13.37;10.60;;;14.20;99.90;;;;;;5043501;28;20193;-79
2021/04/20 12:53:57;;;;;;;37.03;10.83;;;14.40;99.90;;;;;;5043399;28;20154;-78
2021/04/20 12:56:30;;;;;;;10.70;8.87;;;14.60;99.90;;;;;;5042729;28;20224;-78
2021/04/20 12:59:01;;;;;;;13.33;10.90;;;14.80;99.90;;;;;;5042808;28;20671;-79